Time;durP1;ratioP1;P1;durP2;ratioP2;P2;SDS_P1;SDS_P2;PMS_P1;PMS_P2;Temp;Humidity;BMP_temperature;BMP_pressure;BME280_temperature;BME280_humidity;BME280_pressure;Samples;Min_cycle;Max_cycle;Signal;HPM_P1;HPM_P2
2022/12/01 00:01:41;;;;;;;36.20;18.40;;;;;;;2.13;75.22;100025.08;103080;1300;108168;-70
2022/12/01 00:04:10;;;;;;;34.00;17.40;;;;;;;2.11;75.31;100022.15;103085;1301;99226;-67
2022/12/01 00:06:38;;;;;;;33.60;17.10;;;;;;;2.09;75.48;100022.89;103124;1297;99773;-68
2022/12/01 00:11:56;;;;;;;36.10;17.80;;;;;;;2.05;75.39;100025.61;103047;1304;96586;-68
2022/12/01 00:14:25;;;;;;;38.00;19.10;;;;;;;2.04;75.29;100034.36;103086;1300;108150;-68
2022/12/01 00:16:53;;;;;;;31.70;16.10;;;;;;;2.05;75.49;100031.56;103082;1297;99317;-67
2022/12/01 00:19:27;;;;;;;33.40;18.10;;;;;;;2.06;75.37;100030.15;103126;1296;99198;-68
2022/12/01 00:21:57;;;;;;;36.40;17.40;;;;;;;2.04;75.34;100033.33;103179;1297;112235;-68
2022/12/01 00:24:25;;;;;;;38.20;20.30;;;;;;;2.00;75.25;100031.66;103133;1296;96508;-68
2022/12/01 00:26:54;;;;;;;36.80;19.90;;;;;;;1.98;75.29;100033.65;103137;1291;107929;-67
2022/12/01 00:29:22;;;;;;;35.90;18.00;;;;;;;1.98;75.45;100033.48;103106;1295;99234;-68
2022/12/01 00:31:50;;;;;;;38.40;19.30;;;;;;;1.98;75.53;100035.20;103132;1300;99417;-69
2022/12/01 00:34:24;;;;;;;38.00;19.50;;;;;;;1.97;75.12;100038.22;103119;1303;113113;-68
2022/12/01 00:36:52;;;;;;;34.90;17.80;;;;;;;1.92;75.66;100038.13;103189;1297;99223;-68
2022/12/01 00:39:20;;;;;;;40.10;20.90;;;;;;;1.90;75.48;100040.80;103094;1296;108113;-69
2022/12/01 00:41:50;;;;;;;35.40;18.30;;;;;;;1.90;75.45;100040.98;103036;1304;96588;-68
2022/12/01 00:44:18;;;;;;;33.60;16.20;;;;;;;1.90;75.26;100037.13;103032;1295;99289;-68
2022/12/01 00:46:49;;;;;;;37.40;19.30;;;;;;;1.88;75.39;100034.55;103056;1297;112402;-67
2022/12/01 00:49:17;;;;;;;39.30;21.00;;;;;;;1.89;75.47;100038.73;103060;1304;100277;-67
2022/12/01 00:51:45;;;;;;;36.50;18.50;;;;;;;1.90;75.64;100032.59;103007;1296;108119;-69
2022/12/01 00:54:12;;;;;;;35.20;19.40;;;;;;;1.88;75.31;100032.79;103057;1296;97792;-68
2022/12/01 00:56:42;;;;;;;36.90;18.80;;;;;;;1.86;75.52;100036.34;103159;1299;99220;-68
2022/12/01 00:59:11;;;;;;;36.40;20.00;;;;;;;1.84;75.34;100033.58;103112;1298;112791;-68
2022/12/01 01:01:39;;;;;;;38.00;20.30;;;;;;;1.84;75.41;100028.15;103168;1280;99230;-68
2022/12/01 01:04:08;;;;;;;37.70;20.40;;;;;;;1.83;75.43;100026.98;103057;1298;108100;-68
2022/12/01 01:06:36;;;;;;;39.80;19.60;;;;;;;1.80;75.50;100025.98;103096;1297;99462;-68
2022/12/01 01:09:04;;;;;;;38.90;20.60;;;;;;;1.77;75.46;100025.33;103152;1298;96553;-68
2022/12/01 01:11:32;;;;;;;40.10;20.90;;;;;;;1.77;75.38;100025.35;103159;1296;113191;-68
2022/12/01 01:14:00;;;;;;;37.90;19.80;;;;;;;1.75;75.35;100022.23;103121;1305;99331;-68
2022/12/01 01:16:29;;;;;;;37.80;21.30;;;;;;;1.74;75.17;100019.80;103062;1297;107909;-69
2022/12/01 01:18:59;;;;;;;38.00;21.10;;;;;;;1.74;75.68;100019.29;103078;1304;96589;-68
2022/12/01 01:21:29;;;;;;;39.10;20.80;;;;;;;1.73;75.35;100015.80;103069;1304;99229;-69
2022/12/01 01:23:57;;;;;;;37.00;20.70;;;;;;;1.74;75.50;100010.35;103152;1296;112189;-69
2022/12/01 01:26:31;;;;;;;40.70;22.70;;;;;;;1.75;75.34;100011.05;103066;1297;96472;-69
2022/12/01 01:29:02;;;;;;;39.90;22.10;;;;;;;1.73;75.72;100010.38;103094;1304;106645;-67
2022/12/01 01:31:30;;;;;;;40.50;22.70;;;;;;;1.71;75.55;100006.76;103065;1301;96491;-68
2022/12/01 01:34:02;;;;;;;36.60;19.60;;;;;;;1.69;75.18;100011.17;103141;1301;99214;-67
2022/12/01 01:36:32;;;;;;;40.40;20.90;;;;;;;1.65;75.26;100008.44;103128;1297;113859;-68
2022/12/01 01:39:01;;;;;;;36.50;19.50;;;;;;;1.62;75.55;100006.77;103086;1303;96532;-68
2022/12/01 01:41:30;;;;;;;38.20;19.40;;;;;;;1.62;75.28;100002.22;103063;1301;107810;-67
2022/12/01 01:44:01;;;;;;;34.40;18.40;;;;;;;1.58;75.05;100004.05;103106;1298;99235;-68
2022/12/01 01:46:32;;;;;;;36.20;18.90;;;;;;;1.54;75.34;100003.27;103122;1301;99253;-68
2022/12/01 01:49:10;;;;;;;35.30;19.10;;;;;;;1.49;75.12;99998.98;103071;1296;111080;-68
2022/12/01 01:51:45;;;;;;;34.30;18.30;;;;;;;1.47;75.49;100001.29;103193;1297;99256;-67
2022/12/01 01:54:30;;;;;;;35.40;19.10;;;;;;;1.44;75.46;99999.96;103137;1298;107975;-67
2022/12/01 01:57:01;;;;;;;36.00;19.40;;;;;;;1.42;75.46;100005.06;103067;1297;99198;-67
2022/12/01 01:59:38;;;;;;;36.40;19.00;;;;;;;1.41;75.54;100003.35;103076;1304;100093;-67
2022/12/01 02:02:11;;;;;;;34.50;17.80;;;;;;;1.41;75.47;100003.52;103137;1300;113190;-68
2022/12/01 02:04:53;;;;;;;34.90;17.60;;;;;;;1.39;75.49;100002.86;103089;1300;99291;-67
2022/12/01 02:07:21;;;;;;;35.70;19.20;;;;;;;1.38;75.48;100003.74;103097;1304;107156;-67
2022/12/01 02:09:54;;;;;;;35.20;17.30;;;;;;;1.40;75.48;100005.83;104025;1304;99350;-69
2022/12/01 02:12:53;;;;;;;34.20;17.10;;;;;;;1.37;75.56;100003.08;103171;1290;99333;-67
2022/12/01 02:15:33;;;;;;;34.40;17.80;;;;;;;1.32;75.77;99999.66;103151;1297;112522;-68
2022/12/01 02:18:30;;;;;;;34.90;17.60;;;;;;;1.34;75.76;100000.70;103150;1288;99111;-68
2022/12/01 02:21:21;;;;;;;32.60;17.30;;;;;;;1.36;75.80;100002.06;103141;1297;108088;-66
2022/12/01 02:24:19;;;;;;;32.50;16.70;;;;;;;1.39;75.67;100002.52;103120;1304;99325;-68
2022/12/01 02:26:56;;;;;;;32.10;15.50;;;;;;;1.40;75.50;100003.72;103189;1297;99243;-67
2022/12/01 02:29:42;;;;;;;34.50;17.20;;;;;;;1.37;75.57;100006.73;103163;1289;111963;-67
2022/12/01 02:32:42;;;;;;;34.50;18.20;;;;;;;1.36;75.50;100006.41;103154;1297;99222;-67
2022/12/01 02:35:25;;;;;;;32.80;17.40;;;;;;;1.36;75.68;100001.17;102935;1295;107993;-68
2022/12/01 02:38:23;;;;;;;32.60;16.60;;;;;;;1.37;75.58;100002.90;103157;1297;96599;-67
2022/12/01 02:41:14;;;;;;;32.50;17.20;;;;;;;1.34;75.49;100006.80;103166;1296;99245;-68
2022/12/01 02:44:12;;;;;;;30.90;16.90;;;;;;;1.33;75.61;100008.02;103145;1297;112155;-68
2022/12/01 02:46:46;;;;;;;30.50;16.10;;;;;;;1.34;75.41;100010.13;103123;1296;99671;-68
2022/12/01 02:49:22;;;;;;;30.10;15.80;;;;;;;1.33;75.73;100015.38;103173;1297;107528;-68
2022/12/01 02:51:54;;;;;;;36.20;17.70;;;;;;;1.33;75.67;100012.06;103148;1301;96566;-68
2022/12/01 02:54:24;;;;;;;35.00;18.00;;;;;;;1.30;75.79;100012.81;103193;1291;99340;-68
2022/12/01 02:56:52;;;;;;;31.10;16.50;;;;;;;1.31;75.79;100017.34;103111;1296;112127;-69
2022/12/01 02:59:23;;;;;;;32.30;17.10;;;;;;;1.31;75.62;100018.56;103158;1297;97609;-67
2022/12/01 03:02:08;;;;;;;33.20;16.70;;;;;;;1.32;75.62;100013.30;103044;1297;107799;-67
2022/12/01 03:05:13;;;;;;;33.00;16.70;;;;;;;1.34;75.94;100015.01;103060;1304;99395;-67
2022/12/01 03:07:57;;;;;;;30.80;16.10;;;;;;;1.36;75.86;100014.45;103192;1303;99266;-67
2022/12/01 03:10:53;;;;;;;29.00;15.60;;;;;;;1.37;75.91;100008.14;103172;1303;112562;-68
2022/12/01 03:13:31;;;;;;;28.70;15.60;;;;;;;1.37;75.53;100005.36;103052;1304;97573;-67
2022/12/01 03:16:17;;;;;;;30.30;16.40;;;;;;;1.37;75.58;100007.27;103067;1304;108265;-67
2022/12/01 03:19:08;;;;;;;29.20;15.90;;;;;;;1.37;75.75;100003.95;103067;1297;99246;-67
2022/12/01 03:22:02;;;;;;;31.40;17.20;;;;;;;1.34;75.53;100001.90;103144;1301;96570;-69
2022/12/01 03:24:35;;;;;;;29.90;14.80;;;;;;;1.34;75.69;100009.95;103144;1297;113151;-69
2022/12/01 03:27:08;;;;;;;32.00;15.10;;;;;;;1.30;75.83;100007.04;103178;1297;97931;-68
2022/12/01 03:29:42;;;;;;;29.50;15.30;;;;;;;1.30;75.64;100005.66;103110;1301;107532;-68
2022/12/01 03:32:24;;;;;;;31.70;16.70;;;;;;;1.29;75.67;100000.25;103083;1304;99238;-68
2022/12/01 03:34:57;;;;;;;30.00;15.50;;;;;;;1.28;75.99;99995.04;103098;1298;96532;-67
2022/12/01 03:37:38;;;;;;;30.30;15.70;;;;;;;1.27;75.81;99997.14;103136;1303;112336;-67
2022/12/01 03:40:12;;;;;;;31.90;17.10;;;;;;;1.28;75.62;99996.60;103178;1297;99222;-67
2022/12/01 03:42:57;;;;;;;32.80;16.40;;;;;;;1.29;75.70;99992.22;103161;1297;108189;-68
2022/12/01 03:45:49;;;;;;;27.60;13.80;;;;;;;1.27;76.06;99998.36;103166;1300;100550;-69
2022/12/01 03:48:20;;;;;;;30.10;15.70;;;;;;;1.26;75.85;99990.17;103165;1295;99340;-69
2022/12/01 03:51:03;;;;;;;28.10;15.10;;;;;;;1.25;76.11;99995.63;103145;1297;112353;-68
2022/12/01 03:54:02;;;;;;;28.60;16.20;;;;;;;1.24;75.99;99989.33;103166;1304;99325;-69
2022/12/01 03:56:42;;;;;;;29.20;15.40;;;;;;;1.26;75.96;99983.54;103144;1304;107586;-68
2022/12/01 03:59:13;;;;;;;29.80;15.00;;;;;;;1.26;75.92;99983.02;103104;1304;99373;-68
2022/12/01 04:01:42;;;;;;;29.50;14.40;;;;;;;1.21;75.66;99987.49;103120;1304;99303;-68
2022/12/01 04:04:14;;;;;;;27.20;14.20;;;;;;;1.21;75.80;99984.17;103123;1303;113116;-68
2022/12/01 04:06:46;;;;;;;28.60;13.80;;;;;;;1.22;75.97;99985.20;103059;1296;99168;-68
2022/12/01 04:09:13;;;;;;;30.70;15.70;;;;;;;1.22;75.97;99984.68;103114;1303;107202;-67
2022/12/01 04:14:29;;;;;;;27.80;14.40;;;;;;;1.18;75.83;99987.70;103110;1296;99237;-68
2022/12/01 04:16:58;;;;;;;27.70;14.50;;;;;;;1.18;75.78;99988.59;103178;1297;113531;-68
2022/12/01 04:19:26;;;;;;;30.00;15.00;;;;;;;1.18;75.77;99987.88;103079;1294;99273;-68
2022/12/01 04:21:53;;;;;;;28.40;15.30;;;;;;;1.18;76.11;99991.57;103027;1304;107708;-69
2022/12/01 04:24:21;;;;;;;29.10;14.90;;;;;;;1.16;76.00;99988.96;103068;1304;99101;-67
2022/12/01 04:26:49;;;;;;;28.80;15.00;;;;;;;1.14;76.06;99991.45;103106;1297;99317;-67
2022/12/01 04:29:17;;;;;;;30.80;15.60;;;;;;;1.14;76.01;99991.27;103168;1301;112916;-72
2022/12/01 04:31:45;;;;;;;27.20;15.00;;;;;;;1.15;75.96;99991.62;103142;1301;99647;-70
2022/12/01 04:34:14;;;;;;;29.80;14.20;;;;;;;1.15;76.17;99993.02;103134;1301;107550;-68
2022/12/01 04:36:42;;;;;;;29.70;15.30;;;;;;;1.16;76.09;99994.04;103058;1294;98025;-68
2022/12/01 04:39:10;;;;;;;29.20;15.10;;;;;;;1.17;76.17;99995.42;103116;1297;96474;-69
2022/12/01 04:41:39;;;;;;;30.70;14.60;;;;;;;1.16;76.30;99993.52;103080;1304;113520;-68
2022/12/01 04:44:10;;;;;;;28.40;15.20;;;;;;;1.16;76.22;99994.92;102975;1300;160765;-68
2022/12/01 04:46:39;;;;;;;30.60;15.10;;;;;;;1.15;76.16;99990.38;103039;1295;108190;-69
2022/12/01 04:49:09;;;;;;;30.70;16.40;;;;;;;1.14;76.26;99998.98;103073;1301;99357;-68
2022/12/01 04:51:37;;;;;;;29.00;16.10;;;;;;;1.13;76.02;99995.84;103125;1304;96555;-67
2022/12/01 04:54:05;;;;;;;31.30;16.10;;;;;;;1.13;76.12;99994.80;103086;1304;112965;-68
2022/12/01 04:56:33;;;;;;;31.60;17.00;;;;;;;1.11;76.12;99994.48;103038;1294;97600;-68
2022/12/01 04:59:02;;;;;;;28.70;14.20;;;;;;;1.11;76.21;99992.57;103126;1304;107874;-68
2022/12/01 05:01:31;;;;;;;31.00;15.70;;;;;;;1.10;76.16;99984.73;103057;1296;99209;-69
2022/12/01 05:04:01;;;;;;;30.90;15.40;;;;;;;1.10;76.28;99985.23;103097;1303;96470;-70
2022/12/01 05:06:31;;;;;;;31.10;16.10;;;;;;;1.11;76.03;99986.45;103168;1304;113168;-71
2022/12/01 05:09:01;;;;;;;31.60;17.00;;;;;;;1.10;76.44;99991.02;103125;1303;99246;-71
2022/12/01 05:11:31;;;;;;;29.70;16.10;;;;;;;1.11;76.26;99988.21;103108;1297;107957;-68
2022/12/01 05:13:59;;;;;;;30.60;15.60;;;;;;;1.12;76.37;99985.21;103078;1304;99735;-69
2022/12/01 05:16:32;;;;;;;31.10;16.10;;;;;;;1.11;76.47;99986.45;103113;1298;98319;-68
2022/12/01 05:21:52;;;;;;;32.70;16.90;;;;;;;1.12;76.34;99989.05;103159;1298;99884;-68
2022/12/01 05:24:22;;;;;;;31.40;16.30;;;;;;;1.13;76.30;99986.42;103190;1297;107438;-68
2022/12/01 05:26:51;;;;;;;31.80;17.20;;;;;;;1.15;76.23;99989.88;103171;1301;100820;-68
2022/12/01 05:29:19;;;;;;;34.30;17.20;;;;;;;1.15;76.37;99989.34;103094;1304;99505;-69
2022/12/01 05:31:49;;;;;;;31.20;15.80;;;;;;;1.14;76.09;99985.52;103032;1294;112563;-70
2022/12/01 05:34:18;;;;;;;31.10;16.70;;;;;;;1.10;76.12;99986.63;103028;1297;99220;-70
2022/12/01 05:36:46;;;;;;;32.70;17.10;;;;;;;1.08;76.32;99988.94;103109;1297;107976;-69
2022/12/01 05:39:14;;;;;;;33.00;16.90;;;;;;;1.08;76.48;99985.27;103119;1291;96479;-69
2022/12/01 05:41:41;;;;;;;32.00;15.50;;;;;;;1.09;76.18;99985.95;103121;1296;99138;-70
2022/12/01 05:44:09;;;;;;;32.80;17.90;;;;;;;1.09;76.43;99984.04;103057;1303;112199;-70
2022/12/01 05:46:37;;;;;;;33.80;18.10;;;;;;;1.11;76.14;99980.86;103094;1304;99789;-70
2022/12/01 05:49:05;;;;;;;31.00;16.60;;;;;;;1.13;76.03;99979.95;103107;1304;107782;-71
2022/12/01 05:51:33;;;;;;;34.80;16.00;;;;;;;1.13;76.26;99978.73;103065;1296;99200;-69
2022/12/01 05:54:02;;;;;;;34.00;17.50;;;;;;;1.10;76.24;99980.70;103090;1304;99229;-69
2022/12/01 05:56:30;;;;;;;33.40;17.10;;;;;;;1.10;76.25;99981.41;103064;1297;112763;-69
2022/12/01 05:58:59;;;;;;;37.20;19.40;;;;;;;1.10;76.40;99980.52;103084;1300;96510;-71
2022/12/01 06:01:27;;;;;;;34.50;19.10;;;;;;;1.11;76.38;99975.80;103076;1303;107227;-69
2022/12/01 06:03:54;;;;;;;31.40;17.70;;;;;;;1.12;76.17;99978.56;103042;1303;97602;-70
2022/12/01 06:06:24;;;;;;;36.40;19.10;;;;;;;1.12;76.21;99976.65;103064;1297;99203;-70
2022/12/01 06:08:52;;;;;;;34.00;18.20;;;;;;;1.11;76.15;99975.96;103081;1303;112969;-70
2022/12/01 06:11:20;;;;;;;33.90;16.80;;;;;;;1.13;76.17;99978.02;103041;1297;99312;-71
2022/12/01 06:13:47;;;;;;;34.60;18.20;;;;;;;1.12;76.02;99979.62;103024;1296;107199;-71
2022/12/01 06:16:15;;;;;;;36.00;19.60;;;;;;;1.11;76.35;99981.37;103106;1295;99672;-69
2022/12/01 06:18:43;;;;;;;33.20;18.10;;;;;;;1.10;76.33;99979.30;103058;1298;99888;-69
2022/12/01 06:21:12;;;;;;;32.50;18.30;;;;;;;1.08;76.39;99984.92;103053;1298;113097;-69
2022/12/01 06:23:40;;;;;;;35.60;18.10;;;;;;;1.08;76.14;99987.20;103091;1304;97682;-69
2022/12/01 06:26:07;;;;;;;32.80;18.30;;;;;;;1.08;76.40;99992.27;103085;1303;107674;-71
2022/12/01 06:28:35;;;;;;;31.50;17.20;;;;;;;1.09;76.22;99990.52;103089;1303;98445;-71
2022/12/01 06:31:03;;;;;;;35.80;19.30;;;;;;;1.10;76.32;99993.98;103145;1303;96743;-71
2022/12/01 06:33:32;;;;;;;34.60;18.50;;;;;;;1.10;76.39;99992.41;103129;1295;112160;-69
2022/12/01 06:36:03;;;;;;;33.00;17.90;;;;;;;1.10;76.39;99992.76;103097;1297;97672;-69
2022/12/01 06:38:35;;;;;;;37.20;20.00;;;;;;;1.11;76.47;99997.98;103040;1301;106114;-69
2022/12/01 06:41:04;;;;;;;36.70;20.10;;;;;;;1.11;76.35;99999.20;103034;1298;96629;-70
2022/12/01 06:43:38;;;;;;;37.30;20.10;;;;;;;1.10;76.24;100001.14;103071;1293;100349;-70
2022/12/01 06:46:07;;;;;;;36.90;19.90;;;;;;;1.11;76.24;100006.02;103107;1298;112472;-68
2022/12/01 06:48:35;;;;;;;37.70;21.50;;;;;;;1.13;76.30;100005.98;103091;1303;99283;-70
2022/12/01 06:51:03;;;;;;;33.40;16.50;;;;;;;1.15;76.30;100013.45;103038;1294;107492;-70
2022/12/01 06:53:33;;;;;;;34.00;18.00;;;;;;;1.16;76.55;100013.27;103095;1294;99191;-71
2022/12/01 06:56:03;;;;;;;35.30;18.20;;;;;;;1.15;76.42;100011.70;103050;1304;98309;-68
2022/12/01 06:58:33;;;;;;;34.60;19.80;;;;;;;1.16;76.58;100013.60;103078;1303;112890;-69
2022/12/01 07:01:12;;;;;;;38.00;20.50;;;;;;;1.17;76.29;100018.65;103075;1297;99254;-69
2022/12/01 07:03:40;;;;;;;63.90;35.40;;;;;;;1.18;76.48;100015.16;103116;1297;107875;-69
2022/12/01 07:06:09;;;;;;;75.50;37.80;;;;;;;1.20;76.20;100018.43;103055;1291;99851;-70
2022/12/01 07:08:39;;;;;;;44.10;23.10;;;;;;;1.24;76.64;100016.44;103152;1297;99227;-70
2022/12/01 07:11:12;;;;;;;36.40;19.50;;;;;;;1.27;76.62;100018.45;103121;1298;113575;-69
2022/12/01 07:13:44;;;;;;;34.70;19.20;;;;;;;1.28;76.28;100020.36;103105;1303;101309;-70
2022/12/01 07:16:12;;;;;;;32.80;17.80;;;;;;;1.28;76.46;100017.40;103021;1305;107133;-71
2022/12/01 07:18:43;;;;;;;34.00;18.50;;;;;;;1.24;76.30;100016.08;103051;1303;100410;-68
2022/12/01 07:21:15;;;;;;;34.20;19.90;;;;;;;1.21;76.41;100013.00;103117;1304;99137;-68
2022/12/01 07:23:42;;;;;;;35.40;20.00;;;;;;;1.22;76.45;100019.27;103068;1297;112689;-69
2022/12/01 07:26:15;;;;;;;39.20;19.10;;;;;;;1.22;76.39;100024.87;103132;1297;99049;-71
2022/12/01 07:28:44;;;;;;;36.00;19.10;;;;;;;1.24;76.61;100024.81;103112;1297;107586;-70
2022/12/01 07:31:19;;;;;;;36.30;20.00;;;;;;;1.26;76.39;100029.14;103166;1295;99223;-69
2022/12/01 07:33:47;;;;;;;38.10;19.40;;;;;;;1.27;76.29;100029.13;103083;1298;99266;-69
2022/12/01 07:36:15;;;;;;;37.20;20.80;;;;;;;1.29;76.47;100022.80;103090;1298;112200;-71
2022/12/01 07:38:43;;;;;;;34.90;19.30;;;;;;;1.32;76.37;100021.52;103232;1303;99110;-71
2022/12/01 07:41:14;;;;;;;39.80;20.60;;;;;;;1.29;76.40;100022.47;103117;1303;107391;-69
2022/12/01 07:43:44;;;;;;;39.20;21.30;;;;;;;1.22;76.44;100018.93;103102;1298;99238;-71
2022/12/01 07:46:19;;;;;;;39.20;20.60;;;;;;;1.20;76.81;100019.83;103032;1297;97231;-70
2022/12/01 07:48:54;;;;;;;40.20;21.40;;;;;;;1.22;76.76;100016.64;103018;1303;112467;-71
2022/12/01 07:51:24;;;;;;;38.60;20.50;;;;;;;1.25;76.85;100015.02;103011;1304;99201;-71
2022/12/01 07:53:54;;;;;;;38.20;19.70;;;;;;;1.27;76.44;100017.77;103030;1304;107360;-72
2022/12/01 07:56:23;;;;;;;45.90;22.80;;;;;;;1.27;76.47;100013.04;102994;1296;99222;-70
2022/12/01 07:58:51;;;;;;;35.00;19.00;;;;;;;1.30;76.57;100011.95;103086;1303;99321;-70
2022/12/01 08:01:23;;;;;;;36.20;18.80;;;;;;;1.31;76.58;100006.87;103065;1303;112657;-69
2022/12/01 08:03:56;;;;;;;36.20;19.30;;;;;;;1.30;76.70;100010.20;103140;1297;99291;-70
2022/12/01 08:06:25;;;;;;;34.90;18.80;;;;;;;1.29;76.58;100010.73;102981;1297;107600;-70
2022/12/01 08:08:54;;;;;;;38.40;19.70;;;;;;;1.28;76.31;100010.06;103324;1304;99917;-70
2022/12/01 08:11:25;;;;;;;34.70;18.30;;;;;;;1.26;76.34;100005.71;104292;1297;99218;-71
2022/12/01 08:13:53;;;;;;;40.30;20.00;;;;;;;1.24;76.64;100004.73;102961;1303;112671;-71
2022/12/01 08:16:24;;;;;;;38.50;19.40;;;;;;;1.22;76.38;99998.48;103882;1298;96964;-71
2022/12/01 08:18:53;;;;;;;39.60;21.80;;;;;;;1.23;76.62;100000.21;102948;1306;106716;-71
2022/12/01 08:21:22;;;;;;;36.70;19.70;;;;;;;1.26;76.35;100004.69;103430;1294;97176;-69
2022/12/01 08:23:54;;;;;;;39.60;20.40;;;;;;;1.29;76.65;100000.43;103086;1290;99237;-70
2022/12/01 08:26:24;;;;;;;40.70;21.00;;;;;;;1.30;76.52;100004.94;103071;1303;112248;-69
2022/12/01 08:28:52;;;;;;;37.50;20.10;;;;;;;1.32;76.55;99997.22;103051;1303;99200;-70
2022/12/01 08:31:34;;;;;;;35.90;19.30;;;;;;;1.35;76.67;100000.86;103062;1298;107356;-71
2022/12/01 08:34:06;;;;;;;42.10;22.30;;;;;;;1.36;76.82;99999.08;103040;1303;99330;-69
2022/12/01 08:36:36;;;;;;;37.40;19.80;;;;;;;1.37;76.63;100001.86;103102;1303;99222;-70
2022/12/01 08:39:07;;;;;;;42.00;19.90;;;;;;;1.33;76.45;100000.86;103676;1295;113225;-69
2022/12/01 08:41:35;;;;;;;38.50;20.90;;;;;;;1.33;76.70;99999.65;102958;1303;99469;-69
2022/12/01 08:44:03;;;;;;;39.80;20.50;;;;;;;1.34;76.63;100002.96;103011;1297;108073;-69
2022/12/01 08:46:33;;;;;;;38.20;20.80;;;;;;;1.35;76.42;100002.77;103038;1296;99256;-69
2022/12/01 08:49:04;;;;;;;39.00;21.20;;;;;;;1.34;76.56;100006.29;103102;1303;99350;-69
2022/12/01 08:51:35;;;;;;;37.20;19.10;;;;;;;1.33;76.61;100013.78;103109;1304;112525;-70
2022/12/01 08:54:05;;;;;;;36.60;18.50;;;;;;;1.35;76.52;100014.98;103181;1299;99234;-71
2022/12/01 08:56:37;;;;;;;35.70;18.30;;;;;;;1.38;76.56;100013.89;103069;1304;107296;-71
2022/12/01 08:59:08;;;;;;;38.40;19.40;;;;;;;1.41;76.54;100008.95;103066;1305;99359;-69
2022/12/01 09:01:50;;;;;;;39.30;20.30;;;;;;;1.41;76.59;100007.71;103108;1287;99302;-70
2022/12/01 09:04:25;;;;;;;39.30;21.30;;;;;;;1.42;76.62;100009.45;103070;1301;112187;-70
2022/12/01 09:06:55;;;;;;;39.30;19.90;;;;;;;1.43;76.57;100006.27;103133;1297;99247;-70
2022/12/01 09:09:27;;;;;;;34.40;17.70;;;;;;;1.44;76.82;100003.45;103074;1297;107587;-70
2022/12/01 09:11:55;;;;;;;35.60;18.70;;;;;;;1.46;76.79;99999.04;103056;1304;99891;-70
2022/12/01 09:14:24;;;;;;;36.40;19.50;;;;;;;1.47;76.57;99998.50;103084;1299;99242;-70
2022/12/01 09:16:53;;;;;;;34.90;17.50;;;;;;;1.49;76.67;99999.34;103074;1301;113029;-70
2022/12/01 09:19:22;;;;;;;37.80;20.00;;;;;;;1.52;76.79;99995.09;103068;1303;97634;-70
2022/12/01 09:21:53;;;;;;;35.80;18.40;;;;;;;1.54;76.18;99993.13;103036;1295;108148;-70
2022/12/01 09:24:21;;;;;;;36.40;18.80;;;;;;;1.51;76.39;99994.40;103060;1299;99311;-69
2022/12/01 09:26:55;;;;;;;35.20;18.00;;;;;;;1.52;76.78;99993.86;103046;1303;99237;-71
2022/12/01 09:29:24;;;;;;;34.50;19.00;;;;;;;1.55;76.66;99991.71;103064;1297;113133;-69
2022/12/01 09:31:56;;;;;;;39.10;20.60;;;;;;;1.53;76.53;99989.46;103076;1300;99996;-71
2022/12/01 09:34:26;;;;;;;35.80;18.70;;;;;;;1.54;76.56;99988.23;103004;1306;107365;-71
2022/12/01 09:36:57;;;;;;;33.90;17.90;;;;;;;1.55;76.41;99981.39;103071;1303;99326;-69
2022/12/01 09:39:26;;;;;;;38.00;19.20;;;;;;;1.54;76.49;99981.58;103059;1309;99287;-71
2022/12/01 09:42:00;;;;;;;40.50;21.00;;;;;;;1.52;76.17;99979.70;103047;1305;112950;-70
2022/12/01 09:44:46;;;;;;;37.70;20.80;;;;;;;1.52;76.44;99981.98;103049;1304;96474;-68
2022/12/01 09:47:28;;;;;;;39.90;21.30;;;;;;;1.54;76.50;99977.58;103076;1304;108021;-69
2022/12/01 09:50:20;;;;;;;36.00;19.20;;;;;;;1.56;76.58;99981.54;103056;1304;99416;-69
2022/12/01 09:53:02;;;;;;;36.70;19.40;;;;;;;1.54;76.58;99974.95;103137;1303;99438;-70
2022/12/01 09:55:34;;;;;;;43.60;24.60;;;;;;;1.54;76.47;99972.32;103065;1305;112545;-71
2022/12/01 09:58:12;;;;;;;42.60;25.00;;;;;;;1.54;76.46;99974.94;103157;1303;99250;-69
2022/12/01 10:00:43;;;;;;;40.90;21.20;;;;;;;1.56;76.39;99975.09;103121;1305;105641;-71
2022/12/01 10:03:28;;;;;;;34.90;19.10;;;;;;;1.57;76.54;99972.42;103065;1296;99332;-70
2022/12/01 10:06:07;;;;;;;38.70;19.50;;;;;;;1.57;76.59;99967.89;103163;1294;99302;-71
2022/12/01 10:09:26;;;;;;;35.20;18.60;;;;;;;1.54;76.41;99965.48;103031;1306;113143;-69
2022/12/01 10:12:03;;;;;;;35.80;18.10;;;;;;;1.51;76.57;99961.88;103061;1293;96581;-69
2022/12/01 10:14:35;;;;;;;35.30;19.50;;;;;;;1.52;76.59;99956.80;103034;1303;107312;-69
2022/12/01 10:17:05;;;;;;;38.30;19.80;;;;;;;1.53;76.51;99956.77;103090;1304;96557;-69
2022/12/01 10:19:58;;;;;;;38.50;21.50;;;;;;;1.55;76.36;99960.94;103052;1301;99308;-69
2022/12/01 10:22:55;;;;;;;39.00;21.20;;;;;;;1.53;76.59;99957.65;103017;1298;112550;-70
2022/12/01 10:25:28;;;;;;;41.90;22.30;;;;;;;1.54;76.39;99956.59;103007;1309;99232;-71
2022/12/01 10:28:28;;;;;;;40.40;22.60;;;;;;;1.54;76.48;99958.16;103125;1303;107469;-71
2022/12/01 10:31:16;;;;;;;44.50;23.00;;;;;;;1.56;76.79;99956.89;102896;1305;99857;-71
2022/12/01 10:34:02;;;;;;;43.50;24.00;;;;;;;1.56;76.54;99952.87;103080;1305;99325;-71
2022/12/01 10:36:33;;;;;;;42.10;23.70;;;;;;;1.59;76.37;99953.34;103077;1305;112549;-71
2022/12/01 10:39:05;;;;;;;41.00;22.00;;;;;;;1.61;76.55;99956.42;103074;1305;99329;-70
2022/12/01 10:41:37;;;;;;;38.50;20.40;;;;;;;1.62;76.48;99950.13;103077;1302;107514;-72
2022/12/01 10:44:07;;;;;;;40.20;19.60;;;;;;;1.60;76.53;99950.86;103090;1301;99239;-72
2022/12/01 10:46:54;;;;;;;40.40;20.50;;;;;;;1.61;76.45;99953.98;103117;1305;99313;-71
2022/12/01 10:49:38;;;;;;;41.90;23.20;;;;;;;1.62;76.38;99952.40;103100;1305;112218;-71
2022/12/01 10:52:27;;;;;;;45.70;24.90;;;;;;;1.62;76.33;99947.84;103098;1304;99243;-70
2022/12/01 10:54:55;;;;;;;42.30;20.30;;;;;;;1.63;76.48;99943.30;103120;1303;107480;-71
2022/12/01 10:57:27;;;;;;;38.50;18.50;;;;;;;1.63;76.42;99942.92;103033;1311;99329;-70
2022/12/01 11:00:01;;;;;;;45.30;22.80;;;;;;;1.62;76.28;99941.19;103124;1297;99230;-70
2022/12/01 11:02:31;;;;;;;42.50;22.50;;;;;;;1.61;76.41;99942.61;103101;1305;112305;-69
2022/12/01 11:05:07;;;;;;;45.60;23.10;;;;;;;1.59;76.59;99940.57;103105;1303;99371;-68
2022/12/01 11:07:46;;;;;;;44.40;23.10;;;;;;;1.60;76.43;99935.31;103044;1297;107106;-70
2022/12/01 11:10:34;;;;;;;42.00;21.60;;;;;;;1.57;76.52;99937.98;103048;1300;99981;-69
2022/12/01 11:13:22;;;;;;;41.50;21.90;;;;;;;1.57;76.08;99933.45;103095;1287;99314;-69
2022/12/01 11:15:54;;;;;;;41.10;19.90;;;;;;;1.56;76.34;99933.64;103061;1294;113501;-68
2022/12/01 11:18:23;;;;;;;42.10;20.90;;;;;;;1.57;76.30;99934.86;103164;1297;99337;-69
2022/12/01 11:21:25;;;;;;;40.80;20.30;;;;;;;1.58;76.35;99932.55;103114;1304;106550;-70
2022/12/01 11:23:56;;;;;;;37.00;18.70;;;;;;;1.59;76.29;99930.95;103055;1305;99340;-68
2022/12/01 11:26:33;;;;;;;40.10;19.90;;;;;;;1.58;76.38;99932.19;103112;1293;99357;-68
2022/12/01 11:29:22;;;;;;;41.90;21.60;;;;;;;1.59;76.23;99931.84;103105;1303;112437;-69
2022/12/01 11:31:53;;;;;;;39.70;20.90;;;;;;;1.60;76.56;99933.04;103104;1298;96574;-70
2022/12/01 11:34:27;;;;;;;40.20;20.50;;;;;;;1.60;76.36;99933.89;103059;1303;107420;-69
2022/12/01 11:37:00;;;;;;;44.30;22.90;;;;;;;1.62;76.08;99932.98;103065;1303;99333;-70
2022/12/01 11:39:39;;;;;;;42.10;20.80;;;;;;;1.61;76.29;99928.30;103107;1301;99331;-69
2022/12/01 11:42:10;;;;;;;44.70;22.40;;;;;;;1.58;76.62;99929.39;103029;1300;113044;-69
2022/12/01 11:44:47;;;;;;;41.90;22.50;;;;;;;1.59;76.36;99926.95;103027;1301;97659;-69
2022/12/01 11:47:26;;;;;;;42.80;22.10;;;;;;;1.60;76.38;99922.36;103117;1293;107930;-69